Terminal Aerodrome Forecast
Issued by NWS Greer, SC

Home | Current Version | Previous Version | Text Only | Print | Product List | Glossary On
Versions: 1 2 3 4 5 6 7 8 9 10 11 12 13 14 15 16 17 18 19 20 21 22 23 24 25 26 27 28 29 30 31 32 33 34 35 36 37 38 39 40 41 42 43 44 45 46 47 48 49 50
000
FTUS42 KGSP 231159 AAA
TAFCLT
TAF AMD
KCLT 231159Z 2312/2412 05004KT 6SM -SHRA BR SCT007 OVC015
     FM231400 08004KT 5SM -SHRA BR OVC008
      TEMPO 2315/2319 3SM TSRA BR OVC008CB
     FM231900 29005KT 6SM -SHRA BR OVC010
     FM240000 04005KT 5SM BR VCSH OVC008
     FM240700 05003KT P6SM OVC003=

USA.gov is the U.S. government's official web portal to all federal, state and local government web resources and services.